Time;durP1;ratioP1;P1;durP2;ratioP2;P2;SDS_P1;SDS_P2;PMS_P1;PMS_P2;Temp;Humidity;BMP_temperature;BMP_pressure;BME280_temperature;BME280_humidity;BME280_pressure;Samples;Min_cycle;Max_cycle;Signal;HPM_P1;HPM_P2
2021/11/30 00:02:13;;;;;;;8.20;2.53;;;;;;;;;;5075424;28;20207;-71
2021/11/30 00:04:38;;;;;;;7.10;2.10;;;;;;;;;;5077336;28;20172;-71
2021/11/30 00:07:03;;;;;;;3.73;1.90;;;;;;;;;;5077589;28;20274;-70
2021/11/30 00:12:04;;;;;;;8.37;2.43;;;;;;;;;;5066949;28;20585;-70
2021/11/30 00:14:29;;;;;;;5.60;2.60;;;;;;;;;;5076938;28;20184;-72
2021/11/30 00:16:57;;;;;;;8.43;3.43;;;;;;;;;;5076608;28;21206;-70
2021/11/30 00:19:22;;;;;;;4.10;2.50;;;;;;;;;;5070348;28;20176;-71
2021/11/30 00:21:47;;;;;;;7.40;3.10;;;;;;;;;;5073181;28;20204;-71
2021/11/30 00:24:13;;;;;;;7.10;2.70;;;;;;;;;;5075389;28;20180;-70
2021/11/30 00:26:38;;;;;;;5.13;2.50;;;;;;;;;;5076876;28;20193;-70
2021/11/30 00:29:03;;;;;;;5.33;2.97;;;;;;;;;;5076485;28;20233;-71
2021/11/30 00:31:28;;;;;;;9.43;2.70;;;;;;;;;;5081292;28;20383;-71
2021/11/30 00:33:53;;;;;;;5.03;2.60;;;;;;;;;;5079035;28;20180;-71
2021/11/30 00:36:20;;;;;;;5.37;2.00;;;;;;;;;;5075396;28;20179;-71
2021/11/30 00:38:45;;;;;;;10.27;1.90;;;;;;;;;;5078539;28;20646;-71
2021/11/30 00:41:11;;;;;;;6.07;1.90;;;;;;;;;;5078355;28;20179;-71
2021/11/30 00:43:37;;;;;;;10.30;2.30;;;;;;;;;;5078107;28;20204;-71
2021/11/30 00:46:12;;;;;;;4.87;1.73;;;;;;;;;;5067513;28;20184;-72
2021/11/30 00:48:38;;;;;;;3.90;2.37;;;;;;;;;;5083812;28;20279;-71
2021/11/30 00:51:14;;;;;;;5.37;1.77;;;;;;;;;;5073992;28;20177;-71
2021/11/30 00:53:40;;;;;;;8.73;1.70;;;;;;;;;;5082090;28;20191;-71
2021/11/30 00:56:06;;;;;;;3.07;1.27;;;;;;;;;;5072772;28;20658;-71
2021/11/30 00:58:32;;;;;;;4.40;2.33;;;;;;;;;;5072934;28;20211;-71
2021/11/30 01:00:57;;;;;;;3.33;1.13;;;;;;;;;;5078943;28;20426;-71
2021/11/30 01:03:22;;;;;;;4.47;1.20;;;;;;;;;;5073949;28;20204;-71
2021/11/30 01:05:47;;;;;;;4.93;1.50;;;;;;;;;;5075576;28;20268;-72
2021/11/30 01:08:12;;;;;;;3.07;1.90;;;;;;;;;;5074984;28;20184;-71
2021/11/30 01:10:38;;;;;;;5.77;2.13;;;;;;;;;;5074825;28;20199;-71
2021/11/30 01:13:03;;;;;;;6.03;2.50;;;;;;;;;;5077443;28;20199;-71
2021/11/30 01:15:29;;;;;;;5.17;2.37;;;;;;;;;;5077716;28;20180;-70
2021/11/30 01:17:54;;;;;;;4.80;2.73;;;;;;;;;;5075920;28;20211;-71
2021/11/30 01:20:19;;;;;;;5.27;3.20;;;;;;;;;;5076454;28;20690;-71
2021/11/30 01:22:44;;;;;;;6.10;2.77;;;;;;;;;;5075717;28;20243;-70
2021/11/30 01:25:10;;;;;;;6.40;3.00;;;;;;;;;;5074876;28;20218;-71
2021/11/30 01:27:36;;;;;;;4.90;2.87;;;;;;;;;;5072284;28;21297;-71
2021/11/30 01:30:01;;;;;;;6.97;3.97;;;;;;;;;;5075411;28;20192;-71
2021/11/30 01:32:27;;;;;;;12.03;4.70;;;;;;;;;;5076679;28;20285;-70
2021/11/30 01:34:52;;;;;;;6.80;4.50;;;;;;;;;;5084584;28;20661;-71
2021/11/30 01:37:17;;;;;;;7.40;4.17;;;;;;;;;;5074333;28;20692;-72
2021/11/30 01:39:44;;;;;;;6.73;4.43;;;;;;;;;;5076780;28;20539;-72
2021/11/30 01:42:12;;;;;;;9.13;5.40;;;;;;;;;;5074148;28;20216;-70
2021/11/30 01:44:45;;;;;;;8.00;4.70;;;;;;;;;;5074465;28;20244;-70
2021/11/30 01:48:10;;;;;;;9.23;5.07;;;;;;;;;;5074756;28;21748;-71
2021/11/30 01:49:57;;;;;;;11.47;6.33;;;;;;;;;;5063373;28;20192;-70
2021/11/30 01:52:22;;;;;;;12.67;6.70;;;;;;;;;;5073668;28;20200;-70
2021/11/30 01:54:49;;;;;;;10.67;6.43;;;;;;;;;;5075152;28;20194;-71
2021/11/30 01:57:15;;;;;;;10.83;6.30;;;;;;;;;;5073156;28;20226;-71
2021/11/30 01:59:41;;;;;;;11.87;6.23;;;;;;;;;;5071596;28;20221;-70
2021/11/30 02:02:07;;;;;;;8.17;6.17;;;;;;;;;;5073076;28;20188;-71
2021/11/30 02:04:32;;;;;;;9.00;7.10;;;;;;;;;;5071491;28;20187;-71
2021/11/30 02:06:57;;;;;;;10.30;5.97;;;;;;;;;;5075911;28;20607;-71
2021/11/30 02:09:22;;;;;;;11.97;6.33;;;;;;;;;;5074340;28;20191;-72
2021/11/30 02:11:48;;;;;;;9.97;6.23;;;;;;;;;;5075428;28;20208;-72
2021/11/30 02:14:13;;;;;;;13.43;6.80;;;;;;;;;;5077780;28;20185;-71
2021/11/30 02:16:38;;;;;;;11.93;7.80;;;;;;;;;;5075625;28;20205;-71
2021/11/30 02:19:04;;;;;;;8.23;6.10;;;;;;;;;;5071783;28;20172;-71
2021/11/30 02:21:33;;;;;;;9.17;6.57;;;;;;;;;;5060101;28;20192;-72
2021/11/30 02:23:59;;;;;;;8.80;7.07;;;;;;;;;;5072160;22;20319;-72
2021/11/30 02:26:25;;;;;;;8.63;6.70;;;;;;;;;;5050726;28;20181;-71
2021/11/30 02:28:51;;;;;;;8.50;6.23;;;;;;;;;;5058027;28;20850;-72
2021/11/30 02:31:18;;;;;;;7.60;6.30;;;;;;;;;;5055494;28;20643;-72
2021/11/30 02:33:43;;;;;;;10.83;8.60;;;;;;;;;;5053559;28;20351;-73
2021/11/30 02:36:27;;;;;;;8.50;6.97;;;;;;;;;;5054704;28;20174;-73
2021/11/30 02:38:53;;;;;;;8.63;6.80;;;;;;;;;;5052914;28;20181;-72
2021/11/30 02:41:18;;;;;;;7.03;6.33;;;;;;;;;;5055329;28;20189;-72
2021/11/30 02:43:43;;;;;;;7.00;6.40;;;;;;;;;;5053865;28;20262;-73
2021/11/30 02:46:09;;;;;;;8.07;6.67;;;;;;;;;;5050730;28;20417;-73
2021/11/30 02:48:34;;;;;;;6.97;6.27;;;;;;;;;;5042072;28;20185;-74
2021/11/30 02:51:01;;;;;;;6.93;5.80;;;;;;;;;;5057659;28;20173;-73
2021/11/30 02:53:27;;;;;;;6.70;6.00;;;;;;;;;;5052549;28;20871;-73
2021/11/30 02:55:52;;;;;;;6.30;5.70;;;;;;;;;;5059173;28;20177;-73
2021/11/30 02:58:17;;;;;;;8.17;5.87;;;;;;;;;;5054668;28;20687;-73
2021/11/30 03:00:42;;;;;;;6.80;6.10;;;;;;;;;;5050251;28;20536;-74
2021/11/30 03:03:08;;;;;;;7.53;6.27;;;;;;;;;;5036045;28;20298;-74
2021/11/30 03:05:33;;;;;;;7.43;6.60;;;;;;;;;;5046219;28;20259;-73
2021/11/30 03:07:59;;;;;;;7.53;6.50;;;;;;;;;;5042953;28;20208;-74
2021/11/30 03:10:24;;;;;;;6.70;5.83;;;;;;;;;;5049982;28;20223;-73
2021/11/30 03:12:49;;;;;;;7.60;5.70;;;;;;;;;;5051881;28;20203;-73
2021/11/30 03:15:16;;;;;;;6.80;6.10;;;;;;;;;;5056617;28;20264;-73
2021/11/30 03:17:41;;;;;;;6.87;6.17;;;;;;;;;;5034974;28;20289;-74
2021/11/30 03:20:07;;;;;;;6.83;5.90;;;;;;;;;;5055060;28;20319;-76
2021/11/30 03:22:32;;;;;;;6.53;5.87;;;;;;;;;;5052175;28;20200;-72
2021/11/30 03:24:58;;;;;;;7.47;6.77;;;;;;;;;;5053434;28;20259;-73
2021/11/30 03:27:23;;;;;;;7.10;6.40;;;;;;;;;;5050302;28;20229;-73
2021/11/30 03:29:48;;;;;;;7.67;6.87;;;;;;;;;;5051827;28;20181;-73
2021/11/30 03:33:59;;;;;;;9.33;6.87;;;;;;;;;;5041268;28;20322;-73
2021/11/30 03:35:04;;;;;;;8.60;7.70;;;;;;;;;;5052234;28;20189;-73
2021/11/30 03:37:29;;;;;;;8.93;8.03;;;;;;;;;;5059236;28;20292;-75
2021/11/30 03:39:54;;;;;;;9.63;8.63;;;;;;;;;;5043287;28;20277;-74
2021/11/30 03:42:20;;;;;;;8.53;7.07;;;;;;;;;;5051546;28;20226;-74
2021/11/30 03:44:45;;;;;;;9.23;7.80;;;;;;;;;;5054029;28;20212;-73
2021/11/30 03:47:11;;;;;;;10.43;9.33;;;;;;;;;;5040765;28;20212;-75
2021/11/30 03:49:36;;;;;;;10.77;8.10;;;;;;;;;;5050823;28;20185;-75
2021/11/30 03:52:01;;;;;;;9.13;8.10;;;;;;;;;;5052191;28;20193;-74
2021/11/30 03:54:28;;;;;;;12.40;9.30;;;;;;;;;;5051229;28;20666;-75
2021/11/30 03:56:53;;;;;;;11.93;9.63;;;;;;;;;;5048698;28;20700;-75
2021/11/30 03:59:18;;;;;;;8.90;8.00;;;;;;;;;;5053279;28;20176;-75
2021/11/30 04:01:44;;;;;;;11.23;8.73;;;;;;;;;;5040233;28;20188;-74
2021/11/30 04:04:23;;;;;;;8.53;6.93;;;;;;;;;;5054446;28;20192;-75
2021/11/30 04:06:49;;;;;;;9.40;7.40;;;;;;;;;;5042927;28;20284;-75
2021/11/30 04:09:14;;;;;;;10.73;7.33;;;;;;;;;;5054374;28;20685;-73
2021/11/30 04:11:40;;;;;;;8.53;6.73;;;;;;;;;;5055749;28;20181;-74
2021/11/30 04:14:05;;;;;;;9.97;5.70;;;;;;;;;;5056980;28;20196;-74
2021/11/30 04:16:30;;;;;;;7.40;5.17;;;;;;;;;;5060256;28;20181;-76
2021/11/30 04:18:56;;;;;;;7.57;5.13;;;;;;;;;;5055821;28;20180;-74
2021/11/30 04:21:22;;;;;;;8.13;5.00;;;;;;;;;;5044642;28;20758;-73
2021/11/30 04:23:47;;;;;;;5.70;5.17;;;;;;;;;;5053350;28;21635;-74
2021/11/30 04:26:13;;;;;;;6.27;4.43;;;;;;;;;;5060826;28;22100;-74
2021/11/30 04:28:39;;;;;;;8.03;4.63;;;;;;;;;;5041954;28;20181;-74
2021/11/30 04:31:04;;;;;;;7.43;4.67;;;;;;;;;;5054474;28;20188;-75
2021/11/30 04:33:29;;;;;;;7.33;4.43;;;;;;;;;;5052594;28;20201;-74
2021/11/30 04:35:55;;;;;;;5.97;4.63;;;;;;;;;;5054761;28;20576;-73
2021/11/30 04:38:20;;;;;;;7.10;5.33;;;;;;;;;;5057582;28;20201;-74
2021/11/30 04:40:45;;;;;;;7.40;4.63;;;;;;;;;;5045830;28;20234;-73
2021/11/30 04:43:10;;;;;;;8.10;5.27;;;;;;;;;;5054238;28;20603;-76
2021/11/30 04:45:54;;;;;;;9.63;5.67;;;;;;;;;;5042907;28;20184;-74
2021/11/30 04:48:20;;;;;;;5.73;5.13;;;;;;;;;;5059129;28;20587;-74
2021/11/30 04:50:48;;;;;;;9.43;5.13;;;;;;;;;;5052508;28;20226;-73
2021/11/30 04:53:13;;;;;;;9.67;6.50;;;;;;;;;;5054478;28;20725;-75
2021/11/30 04:55:39;;;;;;;12.20;5.97;;;;;;;;;;5041109;28;20191;-75
2021/11/30 04:58:04;;;;;;;9.77;6.43;;;;;;;;;;5056530;28;20207;-75
2021/11/30 05:00:30;;;;;;;9.33;6.67;;;;;;;;;;5056504;28;20705;-75
2021/11/30 05:02:55;;;;;;;8.67;6.10;;;;;;;;;;5043908;28;20193;-74
2021/11/30 05:05:21;;;;;;;10.30;6.20;;;;;;;;;;5055837;28;20261;-74
2021/11/30 05:07:46;;;;;;;8.43;5.73;;;;;;;;;;5054890;28;21838;-74
2021/11/30 05:10:13;;;;;;;7.20;5.50;;;;;;;;;;5060915;28;20185;-75
2021/11/30 05:12:40;;;;;;;7.87;5.50;;;;;;;;;;5055535;28;20687;-74
2021/11/30 05:15:05;;;;;;;8.47;5.47;;;;;;;;;;5053561;28;20184;-75
2021/11/30 05:17:30;;;;;;;10.30;5.93;;;;;;;;;;5055795;28;20641;-75
2021/11/30 05:19:56;;;;;;;9.77;5.70;;;;;;;;;;5041916;28;20174;-75
2021/11/30 05:22:21;;;;;;;9.93;5.90;;;;;;;;;;5054559;28;20732;-75
2021/11/30 05:24:46;;;;;;;8.93;5.73;;;;;;;;;;5043115;28;20173;-74
2021/11/30 05:27:11;;;;;;;10.27;5.93;;;;;;;;;;5036799;28;20184;-76
2021/11/30 05:29:36;;;;;;;8.53;5.60;;;;;;;;;;5052538;28;20705;-75
2021/11/30 05:32:02;;;;;;;9.13;5.80;;;;;;;;;;5043842;28;20270;-75
2021/11/30 05:34:27;;;;;;;10.43;6.73;;;;;;;;;;5055202;28;20423;-76
2021/11/30 05:36:52;;;;;;;8.00;6.50;;;;;;;;;;5052971;28;20243;-75
2021/11/30 05:39:18;;;;;;;10.13;6.20;;;;;;;;;;5053385;28;20173;-74
2021/11/30 05:41:43;;;;;;;9.50;5.60;;;;;;;;;;5054070;28;20242;-75
2021/11/30 05:44:08;;;;;;;15.57;7.33;;;;;;;;;;5039524;28;20758;-73
2021/11/30 05:46:36;;;;;;;9.60;6.43;;;;;;;;;;5056680;28;20543;-75
2021/11/30 05:49:01;;;;;;;9.33;6.43;;;;;;;;;;5055174;28;20187;-73
2021/11/30 05:51:27;;;;;;;11.57;6.27;;;;;;;;;;5052460;28;20181;-74
2021/11/30 05:53:52;;;;;;;11.43;6.20;;;;;;;;;;5050289;28;20250;-74
2021/11/30 05:56:17;;;;;;;10.43;6.83;;;;;;;;;;5053637;28;20646;-73
2021/11/30 05:58:44;;;;;;;8.73;6.33;;;;;;;;;;5054057;28;20666;-74
2021/11/30 06:01:25;;;;;;;10.93;6.47;;;;;;;;;;5040619;28;20601;-75
2021/11/30 06:06:17;;;;;;;14.67;6.87;;;;;;;;;;5057458;28;20181;-74
2021/11/30 06:08:42;;;;;;;11.23;7.00;;;;;;;;;;5046306;28;20555;-73
2021/11/30 06:11:07;;;;;;;14.33;7.17;;;;;;;;;;5052956;28;20220;-74
2021/11/30 06:13:32;;;;;;;14.33;7.73;;;;;;;;;;5040413;28;20719;-74
2021/11/30 06:15:57;;;;;;;12.97;6.47;;;;;;;;;;5038475;28;20284;-75
2021/11/30 06:18:22;;;;;;;16.57;7.17;;;;;;;;;;5056555;28;20220;-75
2021/11/30 06:20:49;;;;;;;13.97;6.43;;;;;;;;;;5056622;28;20177;-73
2021/11/30 06:23:14;;;;;;;14.77;7.40;;;;;;;;;;5051936;28;20308;-74
2021/11/30 06:25:39;;;;;;;15.77;7.27;;;;;;;;;;5052861;28;20189;-74
2021/11/30 06:28:04;;;;;;;14.20;7.23;;;;;;;;;;5038692;28;20766;-74
2021/11/30 06:30:30;;;;;;;18.73;8.07;;;;;;;;;;5040296;28;21837;-74
2021/11/30 06:32:55;;;;;;;21.20;9.57;;;;;;;;;;5054124;28;20201;-73
2021/11/30 06:35:20;;;;;;;13.37;7.17;;;;;;;;;;5055294;28;20187;-74
2021/11/30 06:37:45;;;;;;;19.07;8.80;;;;;;;;;;5058254;28;20219;-72
2021/11/30 06:40:11;;;;;;;16.00;7.50;;;;;;;;;;5054058;28;21575;-74
2021/11/30 06:42:36;;;;;;;17.03;7.63;;;;;;;;;;5053984;28;20200;-74
2021/11/30 06:45:02;;;;;;;20.47;7.17;;;;;;;;;;5055773;28;20276;-73
2021/11/30 06:47:28;;;;;;;20.13;7.77;;;;;;;;;;5054467;28;20189;-74
2021/11/30 06:49:53;;;;;;;12.80;6.80;;;;;;;;;;5038287;28;20277;-74
2021/11/30 06:52:18;;;;;;;20.87;7.57;;;;;;;;;;5053495;28;20208;-75
2021/11/30 06:54:45;;;;;;;13.90;6.23;;;;;;;;;;5037591;28;20276;-74
2021/11/30 06:57:11;;;;;;;18.30;6.40;;;;;;;;;;5052811;28;20244;-74
2021/11/30 06:59:36;;;;;;;20.90;7.87;;;;;;;;;;5040683;28;20279;-74
2021/11/30 07:02:01;;;;;;;24.00;7.67;;;;;;;;;;5054102;28;20689;-72
2021/11/30 07:04:28;;;;;;;15.27;6.60;;;;;;;;;;5050188;28;20185;-73
2021/11/30 07:09:49;;;;;;;14.30;5.80;;;;;;;;;;5053052;28;20666;-73
2021/11/30 07:12:25;;;;;;;12.97;5.30;;;;;;;;;;5054096;28;20200;-73
2021/11/30 07:14:51;;;;;;;14.27;5.20;;;;;;;;;;5036068;28;20303;-72
2021/11/30 07:17:17;;;;;;;9.53;4.40;;;;;;;;;;5060296;28;20200;-73
2021/11/30 07:19:42;;;;;;;19.43;5.17;;;;;;;;;;5055791;28;20181;-71
2021/11/30 07:22:07;;;;;;;11.60;4.57;;;;;;;;;;5053541;28;20169;-72
2021/11/30 07:24:32;;;;;;;8.80;4.10;;;;;;;;;;5057378;28;20180;-73
2021/11/30 07:26:57;;;;;;;12.27;4.70;;;;;;;;;;5041723;28;20367;-72
2021/11/30 07:29:23;;;;;;;13.20;4.93;;;;;;;;;;5052406;28;20191;-73
2021/11/30 07:31:48;;;;;;;14.57;4.83;;;;;;;;;;5053159;28;20208;-72
2021/11/30 07:34:13;;;;;;;10.03;4.03;;;;;;;;;;5052127;28;20323;-73
2021/11/30 07:36:38;;;;;;;14.73;5.00;;;;;;;;;;5054774;28;20177;-72
2021/11/30 07:39:04;;;;;;;11.33;4.03;;;;;;;;;;5054025;28;20173;-73
2021/11/30 07:41:32;;;;;;;14.67;4.60;;;;;;;;;;5054864;28;20176;-72
2021/11/30 07:43:57;;;;;;;15.87;4.17;;;;;;;;;;5054962;28;20216;-72
2021/11/30 07:46:22;;;;;;;13.53;4.83;;;;;;;;;;5054138;28;20727;-72
2021/11/30 07:48:47;;;;;;;10.33;3.87;;;;;;;;;;5057382;28;20181;-73
2021/11/30 07:51:15;;;;;;;10.43;3.97;;;;;;;;;;5054191;28;20254;-74
2021/11/30 07:53:41;;;;;;;12.67;4.03;;;;;;;;;;5038751;28;20250;-73
2021/11/30 07:56:07;;;;;;;10.27;3.73;;;;;;;;;;5052245;28;20858;-72
2021/11/30 07:58:32;;;;;;;9.73;4.13;;;;;;;;;;5054258;28;20200;-74
2021/11/30 08:00:58;;;;;;;10.10;3.93;;;;;;;;;;5043856;28;20181;-74
2021/11/30 08:03:23;;;;;;;16.27;5.03;;;;;;;;;;5054090;28;20274;-74
2021/11/30 08:05:48;;;;;;;11.87;3.77;;;;;;;;;;5052775;28;20173;-74
2021/11/30 08:08:13;;;;;;;8.30;3.57;;;;;;;;;;5051519;28;20230;-75
2021/11/30 08:10:38;;;;;;;10.27;3.57;;;;;;;;;;5054207;28;20181;-75
2021/11/30 08:13:04;;;;;;;8.63;3.60;;;;;;;;;;5051343;28;20649;-74
2021/11/30 08:15:29;;;;;;;17.17;5.23;;;;;;;;;;5050829;28;20189;-73
2021/11/30 08:17:54;;;;;;;14.90;3.83;;;;;;;;;;5041832;28;20303;-73
2021/11/30 08:20:19;;;;;;;9.40;3.57;;;;;;;;;;5049061;28;20556;-73
2021/11/30 08:22:45;;;;;;;11.53;2.77;;;;;;;;;;5050769;28;20220;-72
2021/11/30 08:25:11;;;;;;;6.90;2.80;;;;;;;;;;5052308;28;20607;-72
2021/11/30 08:27:37;;;;;;;7.80;3.57;;;;;;;;;;5053409;28;20264;-72
2021/11/30 08:30:03;;;;;;;10.50;3.43;;;;;;;;;;5049940;28;20181;-72
2021/11/30 08:32:28;;;;;;;9.20;3.50;;;;;;;;;;5050370;28;20646;-71
2021/11/30 08:34:54;;;;;;;11.40;3.50;;;;;;;;;;5052956;28;20207;-72
2021/11/30 08:37:20;;;;;;;7.70;3.30;;;;;;;;;;5054557;28;20205;-72
2021/11/30 08:39:48;;;;;;;11.30;3.13;;;;;;;;;;5054827;28;20841;-72
2021/11/30 08:42:14;;;;;;;9.57;3.43;;;;;;;;;;5034663;28;20277;-72
2021/11/30 08:44:40;;;;;;;8.33;3.17;;;;;;;;;;5055972;28;20188;-71
2021/11/30 08:47:06;;;;;;;12.40;4.23;;;;;;;;;;5058211;28;20946;-72
2021/11/30 08:49:31;;;;;;;17.70;4.00;;;;;;;;;;5055049;28;20668;-71
2021/11/30 08:51:57;;;;;;;7.50;3.57;;;;;;;;;;5055830;28;20177;-70
2021/11/30 08:54:24;;;;;;;9.00;3.80;;;;;;;;;;5054660;28;20238;-72
2021/11/30 08:56:49;;;;;;;10.97;4.27;;;;;;;;;;5056008;28;20181;-73
2021/11/30 08:59:14;;;;;;;9.40;3.97;;;;;;;;;;5055102;28;20181;-71
2021/11/30 09:01:40;;;;;;;14.80;4.73;;;;;;;;;;5055425;28;20194;-73
2021/11/30 09:04:05;;;;;;;11.47;4.77;;;;;;;;;;5055566;28;20204;-74
2021/11/30 09:06:30;;;;;;;10.90;3.70;;;;;;;;;;5053974;28;20262;-71
2021/11/30 09:08:55;;;;;;;8.77;3.93;;;;;;;;;;5054617;28;20724;-73
2021/11/30 09:11:22;;;;;;;15.53;4.07;;;;;;;;;;5060018;28;20552;-72
2021/11/30 09:13:48;;;;;;;7.03;3.53;;;;;;;;;;5054175;28;20267;-74
2021/11/30 09:16:13;;;;;;;19.20;4.60;;;;;;;;;;5055849;28;20738;-73
2021/11/30 09:18:38;;;;;;;10.57;4.37;;;;;;;;;;5059203;28;20266;-72
2021/11/30 09:21:03;;;;;;;12.17;4.33;;;;;;;;;;5056118;28;20642;-73
2021/11/30 09:23:29;;;;;;;12.37;4.60;;;;;;;;;;5037796;28;20254;-73
2021/11/30 09:25:55;;;;;;;10.73;4.43;;;;;;;;;;5059477;28;20646;-73
2021/11/30 09:28:21;;;;;;;8.53;4.03;;;;;;;;;;5057607;28;20193;-73
2021/11/30 09:30:47;;;;;;;13.27;5.17;;;;;;;;;;5054658;28;20247;-73
2021/11/30 09:33:12;;;;;;;13.03;4.10;;;;;;;;;;5052871;28;20208;-73
2021/11/30 09:35:38;;;;;;;11.73;4.37;;;;;;;;;;5041843;28;20708;-73
2021/11/30 09:38:03;;;;;;;8.23;3.90;;;;;;;;;;5052921;28;20205;-73
2021/11/30 09:40:29;;;;;;;10.90;3.93;;;;;;;;;;5037059;28;20276;-74
2021/11/30 09:42:54;;;;;;;10.00;4.43;;;;;;;;;;5053462;28;20216;-72
2021/11/30 09:45:23;;;;;;;10.70;4.23;;;;;;;;;;5053752;28;20181;-73
2021/11/30 09:47:48;;;;;;;15.57;4.47;;;;;;;;;;5057600;28;20189;-74
2021/11/30 09:50:15;;;;;;;12.60;4.73;;;;;;;;;;5055362;28;20236;-73
2021/11/30 09:52:41;;;;;;;10.47;4.03;;;;;;;;;;5054807;28;20212;-73
2021/11/30 09:55:07;;;;;;;9.73;4.37;;;;;;;;;;5054868;28;20196;-73
2021/11/30 09:57:32;;;;;;;11.37;4.27;;;;;;;;;;5041180;28;20231;-73
2021/11/30 09:59:58;;;;;;;10.90;3.73;;;;;;;;;;5055270;28;20659;-73
2021/11/30 10:02:23;;;;;;;15.90;4.10;;;;;;;;;;5053816;28;21674;-73
2021/11/30 10:04:48;;;;;;;10.17;4.43;;;;;;;;;;5051837;28;20189;-73
2021/11/30 10:07:13;;;;;;;16.67;5.03;;;;;;;;;;5052006;28;20268;-73
2021/11/30 10:09:39;;;;;;;14.83;4.07;;;;;;;;;;5053178;28;20670;-73
2021/11/30 10:12:06;;;;;;;10.40;3.80;;;;;;;;;;5052871;28;20185;-73
2021/11/30 10:14:35;;;;;;;15.57;3.63;;;;;;;;;;5053937;28;20697;-73
2021/11/30 10:17:09;;;;;;;9.30;4.37;;;;;;;;;;5059130;28;20204;-73
2021/11/30 10:19:34;;;;;;;14.53;4.00;;;;;;;;;;5053899;28;20188;-72
2021/11/30 10:21:59;;;;;;;13.40;5.03;;;;;;;;;;5039325;28;20177;-71
2021/11/30 10:24:24;;;;;;;12.47;3.83;;;;;;;;;;5053639;28;20220;-72
2021/11/30 10:26:50;;;;;;;15.00;3.67;;;;;;;;;;5053741;28;20178;-72
2021/11/30 10:29:15;;;;;;;15.23;4.27;;;;;;;;;;5054623;28;20184;-72
2021/11/30 10:31:42;;;;;;;8.07;2.97;;;;;;;;;;5042165;28;20185;-72
2021/11/30 10:34:25;;;;;;;8.73;3.30;;;;;;;;;;5051508;28;20262;-73
2021/11/30 10:37:07;;;;;;;7.60;3.40;;;;;;;;;;5055399;28;20173;-72
2021/11/30 10:39:34;;;;;;;15.37;3.10;;;;;;;;;;5056071;28;20184;-72
2021/11/30 10:42:15;;;;;;;6.83;3.23;;;;;;;;;;5054521;28;20737;-74
2021/11/30 10:44:40;;;;;;;11.03;3.60;;;;;;;;;;5051493;28;20173;-73
2021/11/30 10:47:06;;;;;;;10.97;3.63;;;;;;;;;;5049998;28;20192;-73
2021/11/30 10:49:32;;;;;;;12.90;3.77;;;;;;;;;;5054736;28;20184;-73
2021/11/30 10:51:59;;;;;;;17.13;5.03;;;;;;;;;;5052292;28;20211;-74
2021/11/30 10:54:34;;;;;;;11.10;3.83;;;;;;;;;;5049086;28;20177;-73
2021/11/30 10:57:00;;;;;;;9.13;3.37;;;;;;;;;;5035288;28;20210;-73
2021/11/30 10:59:29;;;;;;;9.83;3.33;;;;;;;;;;5050524;28;20185;-74
2021/11/30 11:01:54;;;;;;;10.00;3.63;;;;;;;;;;5055384;28;20169;-73
2021/11/30 11:04:27;;;;;;;12.53;3.40;;;;;;;;;;5053121;28;20272;-74
2021/11/30 11:07:09;;;;;;;11.30;4.30;;;;;;;;;;5054728;28;20199;-74
2021/11/30 11:09:38;;;;;;;7.67;3.57;;;;;;;;;;5053671;28;20679;-74
2021/11/30 11:12:04;;;;;;;12.87;3.27;;;;;;;;;;5051843;28;20180;-73
2021/11/30 11:14:30;;;;;;;10.70;3.33;;;;;;;;;;5050994;28;20180;-73
2021/11/30 11:17:01;;;;;;;8.57;3.50;;;;;;;;;;5054574;28;20173;-73
2021/11/30 11:19:39;;;;;;;11.17;3.10;;;;;;;;;;5043995;28;20181;-73
2021/11/30 11:22:17;;;;;;;10.90;4.17;;;;;;;;;;5054640;28;20173;-74
2021/11/30 11:24:43;;;;;;;11.33;3.40;;;;;;;;;;5055514;28;20180;-74
2021/11/30 11:27:08;;;;;;;10.90;3.40;;;;;;;;;;5055489;28;20177;-74
2021/11/30 11:29:35;;;;;;;11.77;3.50;;;;;;;;;;5054124;28;20564;-75
2021/11/30 11:32:02;;;;;;;11.10;4.03;;;;;;;;;;5056271;28;20223;-74
2021/11/30 11:34:28;;;;;;;12.80;4.40;;;;;;;;;;5057292;28;20246;-74
2021/11/30 11:36:55;;;;;;;9.60;3.70;;;;;;;;;;5055457;28;20268;-73
2021/11/30 11:39:21;;;;;;;9.13;3.70;;;;;;;;;;5053061;28;20176;-73
2021/11/30 11:41:51;;;;;;;10.07;3.70;;;;;;;;;;5050259;28;20662;-74
2021/11/30 11:44:16;;;;;;;5.97;2.90;;;;;;;;;;5053788;28;20804;-74
2021/11/30 11:46:41;;;;;;;7.30;3.00;;;;;;;;;;5059801;28;20223;-74
2021/11/30 11:49:07;;;;;;;8.43;3.37;;;;;;;;;;5058862;28;20318;-74
2021/11/30 11:51:37;;;;;;;9.20;3.37;;;;;;;;;;5068055;28;20188;-75
2021/11/30 11:54:03;;;;;;;9.87;4.00;;;;;;;;;;5068844;28;20204;-75
2021/11/30 11:56:31;;;;;;;7.13;3.37;;;;;;;;;;5047185;28;20174;-75
2021/11/30 11:59:16;;;;;;;11.70;3.63;;;;;;;;;;5066693;28;20625;-73
2021/11/30 12:01:42;;;;;;;8.40;3.70;;;;;;;;;;5062208;28;20185;-73
2021/11/30 12:04:18;;;;;;;10.67;3.40;;;;;;;;;;5052220;28;20666;-73
2021/11/30 12:06:51;;;;;;;12.07;4.43;;;;;;;;;;5053500;28;20558;-74
2021/11/30 12:09:21;;;;;;;7.67;3.20;;;;;;;;;;5069143;28;20222;-73
2021/11/30 12:12:09;;;;;;;10.73;3.53;;;;;;;;;;5059928;28;20547;-72
2021/11/30 12:14:40;;;;;;;7.37;3.30;;;;;;;;;;5029709;28;20991;-72
2021/11/30 12:17:15;;;;;;;8.63;3.63;;;;;;;;;;5055073;28;20208;-75
2021/11/30 12:19:40;;;;;;;13.20;4.33;;;;;;;;;;5050191;28;20199;-74
2021/11/30 12:22:06;;;;;;;11.60;3.97;;;;;;;;;;5049926;28;20177;-74
2021/11/30 12:24:37;;;;;;;7.10;3.23;;;;;;;;;;5050873;28;20256;-72
2021/11/30 12:27:22;;;;;;;9.00;3.90;;;;;;;;;;5059705;28;20204;-74
2021/11/30 12:29:49;;;;;;;12.23;3.90;;;;;;;;;;5057767;28;20246;-75
2021/11/30 12:32:14;;;;;;;12.07;4.37;;;;;;;;;;5074283;28;20218;-74
2021/11/30 12:34:40;;;;;;;9.97;3.80;;;;;;;;;;5056924;28;20570;-74
2021/11/30 12:37:07;;;;;;;11.13;4.73;;;;;;;;;;5055108;28;20224;-75
2021/11/30 12:39:51;;;;;;;8.90;3.77;;;;;;;;;;5056136;28;20181;-75
2021/11/30 12:42:16;;;;;;;10.53;3.43;;;;;;;;;;5061471;28;20786;-74
2021/11/30 12:44:42;;;;;;;13.77;4.17;;;;;;;;;;5055871;28;20192;-74
2021/11/30 12:47:17;;;;;;;15.33;4.90;;;;;;;;;;5058500;28;20192;-74
2021/11/30 12:49:44;;;;;;;12.40;4.47;;;;;;;;;;5055180;28;20184;-74
2021/11/30 12:52:11;;;;;;;9.77;3.70;;;;;;;;;;5055897;28;21436;-75
2021/11/30 12:54:38;;;;;;;11.70;3.87;;;;;;;;;;5058528;28;20678;-76
2021/11/30 12:57:04;;;;;;;11.10;4.40;;;;;;;;;;5055351;28;20219;-74
2021/11/30 12:59:42;;;;;;;7.83;4.33;;;;;;;;;;5040294;28;21082;-74
2021/11/30 13:02:15;;;;;;;10.93;4.30;;;;;;;;;;5055792;28;20310;-74
2021/11/30 13:04:40;;;;;;;13.57;5.00;;;;;;;;;;5055698;28;20185;-74
2021/11/30 13:07:06;;;;;;;15.53;4.53;;;;;;;;;;5049850;28;20187;-75
2021/11/30 13:09:42;;;;;;;11.73;4.20;;;;;;;;;;5055371;28;20303;-75
2021/11/30 13:12:08;;;;;;;16.53;4.43;;;;;;;;;;5055794;28;20678;-75
2021/11/30 13:14:37;;;;;;;12.70;5.20;;;;;;;;;;5056167;28;20215;-75
2021/11/30 13:17:03;;;;;;;6.07;4.40;;;;;;;;;;5057671;28;20212;-75
2021/11/30 13:19:38;;;;;;;7.37;4.50;;;;;;;;;;5052087;28;20188;-75
2021/11/30 13:22:05;;;;;;;11.77;4.03;;;;;;;;;;5046055;28;20180;-74
2021/11/30 13:24:38;;;;;;;12.57;4.70;;;;;;;;;;5057292;28;20663;-74
2021/11/30 13:27:09;;;;;;;10.60;3.87;;;;;;;;;;5057223;28;20177;-75
2021/11/30 13:29:35;;;;;;;10.40;4.20;;;;;;;;;;5055392;28;20189;-74
2021/11/30 13:32:00;;;;;;;14.93;3.93;;;;;;;;;;5057987;28;20191;-74
2021/11/30 13:34:26;;;;;;;10.77;4.27;;;;;;;;;;5054211;28;20233;-74
2021/11/30 13:36:51;;;;;;;11.07;4.37;;;;;;;;;;5057117;28;20181;-74
2021/11/30 13:39:16;;;;;;;10.87;3.47;;;;;;;;;;5056818;28;20263;-73
2021/11/30 13:41:41;;;;;;;7.27;3.57;;;;;;;;;;5056575;28;20726;-72
2021/11/30 13:44:06;;;;;;;9.57;3.30;;;;;;;;;;5058234;28;20233;-73
2021/11/30 13:46:36;;;;;;;11.93;3.40;;;;;;;;;;5052618;28;20180;-73
2021/11/30 13:49:04;;;;;;;10.33;4.13;;;;;;;;;;5057301;28;20177;-73
2021/11/30 13:51:35;;;;;;;10.60;3.83;;;;;;;;;;5056381;28;20196;-73
2021/11/30 13:54:01;;;;;;;10.77;4.00;;;;;;;;;;5053296;28;20228;-73
2021/11/30 13:56:36;;;;;;;11.07;4.73;;;;;;;;;;5054952;28;20189;-73
2021/11/30 14:04:07;;;;;;;13.60;3.00;;;;;;;;;;5055469;28;20243;-73
2021/11/30 14:06:33;;;;;;;6.90;2.50;;;;;;;;;;5056734;28;21036;-74
2021/11/30 14:09:08;;;;;;;6.00;3.10;;;;;;;;;;5051119;28;21066;-74
2021/11/30 14:11:35;;;;;;;4.83;2.03;;;;;;;;;;5054766;28;20657;-73
2021/11/30 14:14:00;;;;;;;4.43;1.90;;;;;;;;;;5054691;28;20572;-73
2021/11/30 14:16:27;;;;;;;7.70;2.77;;;;;;;;;;5044327;28;20226;-74
2021/11/30 14:18:54;;;;;;;3.03;1.70;;;;;;;;;;5045229;28;20299;-74
2021/11/30 14:21:20;;;;;;;5.80;2.30;;;;;;;;;;5042260;28;20173;-74
2021/11/30 14:23:59;;;;;;;4.57;1.77;;;;;;;;;;5040813;28;20239;-77
2021/11/30 14:26:24;;;;;;;5.77;1.90;;;;;;;;;;5045127;28;20181;-76
2021/11/30 14:28:58;;;;;;;2.63;1.77;;;;;;;;;;5048122;28;20192;-76
2021/11/30 14:31:24;;;;;;;5.13;2.10;;;;;;;;;;5042877;28;20181;-76
2021/11/30 14:33:49;;;;;;;5.80;2.60;;;;;;;;;;5053087;28;20206;-76
2021/11/30 14:36:21;;;;;;;4.37;2.20;;;;;;;;;;5055336;28;20228;-76
2021/11/30 14:38:49;;;;;;;4.23;2.20;;;;;;;;;;5034441;28;20702;-77
2021/11/30 14:41:15;;;;;;;5.47;3.00;;;;;;;;;;5036951;28;20321;-75
2021/11/30 14:43:41;;;;;;;8.20;2.93;;;;;;;;;;5055186;28;20777;-75
2021/11/30 14:46:07;;;;;;;7.17;3.33;;;;;;;;;;5053523;28;20185;-75
2021/11/30 14:48:35;;;;;;;6.80;3.33;;;;;;;;;;5055561;28;20188;-76